Time;durP1;ratioP1;P1;durP2;ratioP2;P2;SDS_P1;SDS_P2;PMS_P1;PMS_P2;Temp;Humidity;BMP_temperature;BMP_pressure;BME280_temperature;BME280_humidity;BME280_pressure;Samples;Min_cycle;Max_cycle;Signal;HPM_P1;HPM_P2
2022/09/16 00:02:24;;;;;;;;;3.50;2.75;;;;;19.65;41.71;100822.81;5001555;28;45294;-62
2022/09/16 00:04:49;;;;;;;;;4.00;4.00;;;;;19.64;41.78;100825.56;4980689;28;46151;-63
2022/09/16 00:07:15;;;;;;;;;5.50;3.50;;;;;19.63;41.77;100829.19;4979710;28;65581;-63
2022/09/16 00:09:40;;;;;;;;;7.50;5.00;;;;;19.61;41.68;100837.25;4980607;28;45299;-63
2022/09/16 00:12:05;;;;;;;;;4.75;4.25;;;;;19.56;41.75;100828.63;4999351;28;64558;-62
2022/09/16 00:14:31;;;;;;;;;5.00;5.00;;;;;19.57;42.21;100832.16;5001340;28;45629;-63
2022/09/16 00:16:56;;;;;;;;;4.50;4.50;;;;;19.53;41.72;100838.59;4983482;28;45388;-62
2022/09/16 00:19:21;;;;;;;;;6.00;4.50;;;;;19.52;42.25;100839.53;5001371;28;45258;-63
2022/09/16 00:21:47;;;;;;;;;5.25;3.50;;;;;19.50;41.81;100844.94;4983612;28;45790;-62
2022/09/16 00:24:14;;;;;;;;;4.75;4.75;;;;;19.47;42.04;100850.41;4983719;28;45251;-63
2022/09/16 00:26:40;;;;;;;;;4.75;3.75;;;;;19.45;41.88;100847.81;5000999;28;47031;-63
2022/09/16 00:29:05;;;;;;;;;7.00;5.25;;;;;19.43;41.89;100852.38;5001349;28;45199;-63
2022/09/16 00:31:31;;;;;;;;;7.25;5.25;;;;;19.42;42.22;100865.75;4980110;28;45260;-63
2022/09/16 00:33:56;;;;;;;;;5.00;5.00;;;;;19.40;42.28;100860.50;4991377;28;52860;-63
2022/09/16 00:36:21;;;;;;;;;4.25;3.75;;;;;19.38;42.04;100853.53;5000986;28;46218;-63
2022/09/16 00:38:53;;;;;;;;;5.00;5.00;;;;;19.38;42.01;100858.88;4980255;28;45589;-62
2022/09/16 00:41:22;;;;;;;;;5.25;5.00;;;;;19.33;42.02;100864.41;4980208;28;45496;-62
2022/09/16 00:43:50;;;;;;;;;6.00;6.00;;;;;19.36;42.13;100861.59;4992660;28;45215;-63
2022/09/16 00:46:21;;;;;;;;;5.00;5.00;;;;;19.31;42.26;100852.97;5000508;28;46129;-62
2022/09/16 00:48:48;;;;;;;;;6.00;4.75;;;;;19.36;42.43;100861.59;5000181;28;45232;-62
2022/09/16 00:51:15;;;;;;;;;6.75;5.75;;;;;19.36;42.41;100861.59;5000880;28;45176;-63
2022/09/16 00:53:48;;;;;;;;;6.25;6.25;;;;;19.35;42.49;100854.53;5000712;28;45389;-62
2022/09/16 00:56:18;;;;;;;;;6.00;5.50;;;;;19.34;42.71;100860.81;4979327;28;48096;-62
2022/09/16 00:58:48;;;;;;;;;6.25;5.25;;;;;19.37;42.50;100860.69;4983280;28;45419;-63
2022/09/16 01:01:14;;;;;;;;;7.50;6.25;;;;;19.38;42.53;100858.88;5000800;28;45339;-62
2022/09/16 01:03:46;;;;;;;;;5.75;5.00;;;;;19.37;42.57;100852.69;5000503;28;45631;-62
2022/09/16 01:06:13;;;;;;;;;5.25;4.00;;;;;19.38;42.71;100846.38;5000873;28;45438;-62
2022/09/16 01:08:42;;;;;;;;;4.50;4.50;;;;;19.40;43.25;100841.00;4999956;28;45193;-63
2022/09/16 01:11:07;;;;;;;;;5.00;4.50;;;;;19.40;42.96;100841.00;5000705;28;45342;-62
2022/09/16 01:13:33;;;;;;;;;5.50;5.50;;;;;19.41;42.79;100840.06;5000402;28;45352;-63
2022/09/16 01:16:08;;;;;;;;;5.75;5.75;;;;;19.40;43.09;100835.69;4999246;28;46673;-63
2022/09/16 01:18:53;;;;;;;;;9.75;6.75;;;;;19.41;42.87;100843.59;5000547;28;45399;-62
2022/09/16 01:21:19;;;;;;;;;6.50;6.00;;;;;19.42;42.97;100850.66;4979587;28;45334;-63
2022/09/16 01:24:02;;;;;;;;;6.00;6.00;;;;;19.40;43.59;100839.19;5000099;28;45492;-63
2022/09/16 01:26:58;;;;;;;;;6.00;6.00;;;;;19.41;43.22;100842.75;5000440;28;45487;-63
2022/09/16 01:29:44;;;;;;;;;8.25;6.00;;;;;19.41;42.96;100846.25;4999400;28;45371;-63
2022/09/16 01:32:35;;;;;;;;;8.50;7.75;;;;;19.41;43.23;100848.91;5000184;28;45248;-63
2022/09/16 01:35:23;;;;;;;;;7.25;6.50;;;;;19.42;43.15;100849.78;5000036;28;45492;-63
2022/09/16 01:38:02;;;;;;;;;5.00;5.00;;;;;19.40;43.18;100849.00;5000125;28;45506;-63
2022/09/16 01:40:41;;;;;;;;;6.25;6.25;;;;;19.39;43.64;100842.78;4978923;28;45359;-63
2022/09/16 01:43:25;;;;;;;;;6.25;5.50;;;;;19.37;43.68;100838.47;4981496;28;53959;-65
2022/09/16 01:46:19;;;;;;;;;5.25;5.25;;;;;19.39;43.32;100848.13;4999763;28;45529;-64
2022/09/16 01:48:59;;;;;;;;;5.00;5.00;;;;;19.39;43.54;100847.28;4986792;28;46253;-62
2022/09/16 01:51:32;;;;;;;;;9.25;7.25;;;;;19.39;43.81;100849.94;5000138;28;45339;-62
2022/09/16 01:54:06;;;;;;;;;6.00;5.00;;;;;19.38;44.05;100849.06;4999961;28;45314;-62
2022/09/16 01:56:53;;;;;;;;;3.75;3.75;;;;;19.37;43.36;100846.47;5000022;28;45326;-62
2022/09/16 01:59:33;;;;;;;;;9.25;5.25;;;;;19.36;43.53;100842.97;4999600;28;45413;-63
2022/09/16 02:02:28;;;;;;;;;8.00;5.25;;;;;19.34;43.67;100839.50;4999660;28;45230;-63
2022/09/16 02:04:56;;;;;;;;;5.50;5.50;;;;;19.29;44.05;100841.53;4999880;28;45228;-63
2022/09/16 02:07:28;;;;;;;;;5.25;5.00;;;;;19.28;44.18;100842.47;4998767;28;45372;-63
2022/09/16 02:10:00;;;;;;;;;7.00;6.00;;;;;19.27;43.97;100841.63;4999608;28;46443;-63
2022/09/16 02:12:35;;;;;;;;;5.75;5.75;;;;;19.25;43.92;100847.94;4999479;28;45381;-63
2022/09/16 02:15:10;;;;;;;;;10.00;8.25;;;;;19.21;44.01;100841.06;4981980;28;45327;-63
2022/09/16 02:17:45;;;;;;;;;5.25;5.00;;;;;19.19;44.14;100842.91;4999606;28;45265;-63
2022/09/16 02:20:16;;;;;;;;;6.25;6.25;;;;;19.13;44.22;100836.97;4999717;28;46905;-63
2022/09/16 02:22:50;;;;;;;;;11.25;7.00;;;;;19.11;43.85;100835.31;5002899;28;45318;-63
2022/09/16 02:25:18;;;;;;;;;9.75;8.00;;;;;19.10;44.27;100844.22;5003039;28;45373;-63
2022/09/16 02:27:45;;;;;;;;;6.25;5.75;;;;;19.06;44.30;100837.34;5002939;28;45335;-63
2022/09/16 02:30:15;;;;;;;;;6.75;6.75;;;;;19.03;44.41;100840.13;5002127;28;45309;-63
2022/09/16 02:32:47;;;;;;;;;6.50;5.00;;;;;19.02;44.34;100841.06;5002479;28;45384;-64
2022/09/16 02:35:17;;;;;;;;;8.00;6.00;;;;;18.99;44.19;100837.63;4986330;28;45459;-63
2022/09/16 02:37:58;;;;;;;;;7.00;7.00;;;;;18.93;44.32;100831.72;5002908;28;45287;-65
2022/09/16 02:40:31;;;;;;;;;6.25;6.00;;;;;18.91;44.52;100830.94;4984627;28;45547;-63
2022/09/16 02:42:57;;;;;;;;;7.00;7.00;;;;;18.87;44.49;100827.53;4985696;28;45271;-63
2022/09/16 02:45:34;;;;;;;;;8.75;8.00;;;;;18.83;44.46;100821.47;5003012;28;45277;-63
2022/09/16 02:48:22;;;;;;;;;6.00;6.00;;;;;18.81;44.38;100819.81;5002708;28;45362;-63
2022/09/16 02:51:12;;;;;;;;;6.75;6.00;;;;;18.77;44.69;100821.78;5002713;28;45433;-63
2022/09/16 02:53:57;;;;;;;;;6.00;5.00;;;;;18.73;44.91;100825.53;5002027;28;45269;-63
2022/09/16 02:56:38;;;;;;;;;10.75;8.00;;;;;18.70;44.64;100822.97;5002784;28;45216;-62
2022/09/16 02:59:06;;;;;;;;;6.50;6.50;;;;;18.68;44.88;100819.56;5002501;28;45446;-63
2022/09/16 03:01:40;;;;;;;;;8.50;8.00;;;;;18.66;44.74;100821.41;5002418;28;45422;-63
2022/09/16 03:04:05;;;;;;;;;8.50;6.00;;;;;18.63;44.72;100825.06;5002316;28;45442;-63
2022/09/16 03:06:34;;;;;;;;;7.50;6.75;;;;;18.62;45.01;100822.50;5002706;28;45316;-63
2022/09/16 03:09:04;;;;;;;;;6.00;6.00;;;;;18.60;44.82;100819.03;5001901;28;45374;-63
2022/09/16 03:11:58;;;;;;;;;9.75;7.25;;;;;18.58;44.81;100811.13;5002332;28;46084;-63
2022/09/16 03:14:41;;;;;;;;;6.75;6.00;;;;;18.54;45.08;100808.66;4993218;28;45313;-62
2022/09/16 03:17:29;;;;;;;;;12.75;9.00;;;;;18.52;45.06;100809.59;5001493;28;45278;-63
2022/09/16 03:20:05;;;;;;;;;6.25;5.00;;;;;18.49;45.14;100817.75;5002350;28;45346;-63
2022/09/16 03:22:49;;;;;;;;;11.75;9.25;;;;;18.47;45.07;100816.94;5001895;28;47202;-63
2022/09/16 03:25:36;;;;;;;;;7.25;6.75;;;;;18.43;45.33;100812.69;5002000;28;45648;-63
2022/09/16 03:28:17;;;;;;;;;9.25;7.50;;;;;18.42;45.53;100813.63;5002196;28;45151;-63
2022/09/16 03:30:52;;;;;;;;;9.75;8.50;;;;;18.39;45.39;100811.13;4967911;28;45513;-63
2022/09/16 03:33:49;;;;;;;;;7.75;6.00;;;;;18.37;45.74;100814.78;5001475;28;45443;-63
2022/09/16 03:36:22;;;;;;;;;6.50;5.50;;;;;18.34;45.35;100815.78;5001958;28;45359;-63
2022/09/16 03:38:48;;;;;;;;;9.25;9.25;;;;;18.31;45.55;100808.81;5002304;28;45354;-63
2022/09/16 03:41:16;;;;;;;;;4.50;4.50;;;;;18.30;45.81;100809.75;5001817;28;45600;-63
2022/09/16 03:43:54;;;;;;;;;8.00;6.00;;;;;18.27;45.84;100807.22;5001673;28;46381;-63
2022/09/16 03:46:20;;;;;;;;;9.25;8.00;;;;;18.27;45.39;100809.00;5001484;28;45408;-64
2022/09/16 03:48:45;;;;;;;;;9.25;8.00;;;;;18.25;45.88;100814.41;5002065;28;45434;-63
2022/09/16 03:51:11;;;;;;;;;10.75;8.25;;;;;18.22;46.06;100808.38;5001762;28;45468;-63
2022/09/16 03:53:36;;;;;;;;;10.50;7.00;;;;;18.26;45.66;100812.59;5001880;28;45525;-63
2022/09/16 03:56:02;;;;;;;;;8.75;5.50;;;;;18.20;45.59;100811.09;5001576;28;45223;-63
2022/09/16 03:58:27;;;;;;;;;6.50;6.50;;;;;18.22;45.75;100826.97;4980928;28;45367;-63
2022/09/16 04:00:52;;;;;;;;;6.25;6.25;;;;;18.20;45.81;100824.41;5000258;28;45528;-63
2022/09/16 04:03:18;;;;;;;;;8.00;8.00;;;;;18.18;46.09;100831.56;4983914;28;46840;-63
2022/09/16 04:05:43;;;;;;;;;7.50;7.50;;;;;18.17;45.79;100827.19;4979885;28;45337;-63
2022/09/16 04:08:08;;;;;;;;;6.75;6.75;;;;;18.15;46.07;100821.94;4993887;28;45281;-63
2022/09/16 04:10:34;;;;;;;;;6.00;6.00;;;;;18.14;46.05;100822.84;5001418;28;45549;-63
2022/09/16 04:12:59;;;;;;;;;10.00;7.25;;;;;18.08;45.86;100815.16;5001457;28;45364;-63
2022/09/16 04:15:25;;;;;;;;;6.75;5.50;;;;;18.11;45.94;100822.13;5001054;28;45332;-63
2022/09/16 04:17:50;;;;;;;;;11.00;10.50;;;;;18.10;46.16;100831.03;5001691;28;45323;-65
2022/09/16 04:20:15;;;;;;;;;7.25;7.00;;;;;18.09;46.12;100827.53;5001395;28;45279;-64
2022/09/16 04:22:41;;;;;;;;;7.50;7.50;;;;;18.07;46.13;100826.72;5001289;28;45602;-65
2022/09/16 04:25:07;;;;;;;;;8.00;8.00;;;;;18.05;46.20;100836.56;4983536;28;45250;-63
2022/09/16 04:27:32;;;;;;;;;10.00;8.50;;;;;18.05;46.23;100830.38;5001424;28;45236;-63
2022/09/16 04:29:57;;;;;;;;;9.50;8.00;;;;;18.03;46.33;100836.63;4980241;28;45231;-63
2022/09/16 04:32:23;;;;;;;;;7.75;7.75;;;;;18.00;46.57;100833.25;4992549;28;46230;-63
2022/09/16 04:34:48;;;;;;;;;11.00;11.00;;;;;18.02;46.33;100844.66;5000684;28;45476;-63
2022/09/16 04:37:14;;;;;;;;;13.00;12.25;;;;;17.99;46.32;100837.69;5001361;28;45204;-63
2022/09/16 04:39:40;;;;;;;;;12.75;11.00;;;;;17.97;46.51;100836.03;5001140;28;45228;-63
2022/09/16 04:42:05;;;;;;;;;10.75;9.75;;;;;17.96;46.48;100845.81;5000838;28;46918;-63
2022/09/16 04:44:31;;;;;;;;;12.25;10.75;;;;;17.94;46.38;100844.16;5000065;28;45472;-64
2022/09/16 04:46:56;;;;;;;;;9.00;8.00;;;;;17.93;46.33;100845.06;5000970;28;45302;-64
2022/09/16 04:49:22;;;;;;;;;13.00;9.00;;;;;17.91;46.52;100844.25;5000868;28;45290;-64
2022/09/16 04:51:47;;;;;;;;;11.50;11.50;;;;;17.89;46.41;100848.78;5000822;28;46298;-63
2022/09/16 04:54:13;;;;;;;;;13.50;11.50;;;;;17.85;46.67;100842.72;5000663;28;45413;-63
2022/09/16 04:56:38;;;;;;;;;12.25;10.50;;;;;17.85;46.79;100843.56;5001247;28;45324;-63
2022/09/16 04:59:05;;;;;;;;;13.00;10.25;;;;;17.83;46.47;100847.22;5000598;28;45425;-63
2022/09/16 05:01:32;;;;;;;;;10.75;9.00;;;;;17.81;46.71;100842.00;4979539;28;47154;-63
2022/09/16 05:04:00;;;;;;;;;12.00;10.50;;;;;17.80;46.78;100842.91;4998661;28;45477;-63
2022/09/16 05:06:32;;;;;;;;;11.25;10.50;;;;;17.76;46.71;100833.34;5000830;28;45400;-63
2022/09/16 05:08:59;;;;;;;;;12.25;11.25;;;;;17.75;46.86;100826.31;5000510;28;45451;-63
2022/09/16 05:11:27;;;;;;;;;12.50;11.00;;;;;17.75;46.83;100842.25;5000546;28;45338;-63
2022/09/16 05:13:54;;;;;;;;;14.75;13.25;;;;;17.73;46.89;100846.75;5000282;28;45334;-63
2022/09/16 05:16:22;;;;;;;;;11.75;11.50;;;;;17.71;46.81;100851.28;4979450;28;45466;-63
2022/09/16 05:18:49;;;;;;;;;14.25;12.00;;;;;17.70;46.96;100854.88;5000207;28;45483;-63
2022/09/16 05:21:18;;;;;;;;;13.00;12.25;;;;;17.68;46.90;100854.94;5000148;28;45270;-64
2022/09/16 05:23:44;;;;;;;;;13.50;9.00;;;;;17.64;46.61;100841.84;5000378;28;45480;-63
2022/09/16 05:26:11;;;;;;;;;12.25;10.25;;;;;17.65;47.11;100846.22;4999622;28;45254;-64
2022/09/16 05:28:36;;;;;;;;;12.75;10.50;;;;;17.65;47.07;100848.88;5000162;28;45311;-63
2022/09/16 05:31:09;;;;;;;;;12.25;11.75;;;;;17.68;46.83;100846.97;4999833;28;46137;-64
2022/09/16 05:33:34;;;;;;;;;9.50;9.50;;;;;17.68;47.08;100856.72;4999254;28;45274;-64
2022/09/16 05:36:04;;;;;;;;;13.50;11.00;;;;;17.67;47.17;100847.91;5000040;28;45391;-63
2022/09/16 05:38:29;;;;;;;;;11.75;11.75;;;;;17.70;47.06;100850.41;5000322;28;45348;-64
2022/09/16 05:40:58;;;;;;;;;11.00;9.75;;;;;17.69;47.28;100851.34;4999807;28;46333;-63
2022/09/16 05:43:23;;;;;;;;;11.50;9.50;;;;;17.73;46.90;100854.72;4982491;28;45451;-63
2022/09/16 05:45:53;;;;;;;;;10.50;9.50;;;;;17.75;47.32;100857.31;4999843;28;45267;-64
2022/09/16 05:48:19;;;;;;;;;9.25;8.00;;;;;17.78;47.60;100857.19;4979229;28;45255;-64
2022/09/16 05:50:59;;;;;;;;;11.00;9.00;;;;;17.80;47.34;100860.66;4982044;28;47054;-63
2022/09/16 05:53:25;;;;;;;;;13.00;11.25;;;;;17.81;47.29;100862.38;4999951;28;45354;-63
2022/09/16 05:56:00;;;;;;;;;9.75;9.25;;;;;17.83;47.40;100863.19;4999585;28;45231;-63
2022/09/16 05:58:27;;;;;;;;;8.00;8.00;;;;;17.85;47.68;100862.19;4999873;28;45230;-67
2022/09/16 06:01:04;;;;;;;;;11.75;8.75;;;;;17.87;47.67;100870.09;4988355;28;45579;-62
2022/09/16 06:03:32;;;;;;;;;11.50;10.50;;;;;17.90;47.50;100871.75;4995822;28;45700;-63
2022/09/16 06:06:06;;;;;;;;;9.75;9.00;;;;;17.91;47.44;100869.03;4999543;28;45381;-63
2022/09/16 06:08:34;;;;;;;;;13.00;10.75;;;;;17.87;47.56;100851.47;4994532;28;46439;-62
2022/09/16 06:11:04;;;;;;;;;11.50;11.50;;;;;17.96;47.45;100868.84;4999222;28;46300;-61
2022/09/16 06:13:30;;;;;;;;;12.75;8.50;;;;;18.01;47.73;100869.53;4999353;28;45457;-62
2022/09/16 06:15:56;;;;;;;;;13.25;11.25;;;;;18.04;47.80;100880.03;4997042;28;45539;-63
2022/09/16 06:18:24;;;;;;;;;11.00;11.00;;;;;18.07;47.54;100879.03;4988363;28;45445;-63
2022/09/16 06:20:50;;;;;;;;;13.50;12.25;;;;;18.10;47.32;100881.56;4998606;28;45372;-63
2022/09/16 06:23:16;;;;;;;;;12.50;12.50;;;;;18.12;47.69;100879.72;4999319;28;45220;-63
2022/09/16 06:25:41;;;;;;;;;11.25;10.25;;;;;18.13;47.79;100882.28;4999314;28;45407;-63
2022/09/16 06:28:08;;;;;;;;;9.25;9.00;;;;;18.15;47.63;100877.78;4999349;28;45203;-67
2022/09/16 06:30:34;;;;;;;;;12.25;11.50;;;;;18.17;47.67;100883.03;4998788;28;46353;-67
2022/09/16 06:32:59;;;;;;;;;12.75;11.75;;;;;18.22;47.77;100882.84;4997763;28;46205;-64
2022/09/16 06:35:24;;;;;;;;;14.25;13.75;;;;;18.26;47.51;100889.72;5005215;28;45290;-64
2022/09/16 06:37:50;;;;;;;;;12.75;11.25;;;;;18.28;47.61;100882.56;5005512;28;45459;-65
2022/09/16 06:40:16;;;;;;;;;10.00;9.75;;;;;18.29;47.80;100877.16;4981183;28;47332;-65
2022/09/16 06:42:41;;;;;;;;;14.50;12.75;;;;;18.32;47.78;100878.81;4978457;28;45509;-65
2022/09/16 06:45:07;;;;;;;;;13.25;12.25;;;;;18.37;47.86;100887.47;4999486;28;45461;-65
2022/09/16 06:47:32;;;;;;;;;17.00;13.00;;;;;18.41;47.58;100888.19;4999190;28;45390;-65
2022/09/16 06:49:59;;;;;;;;;13.50;13.00;;;;;18.41;47.80;100894.38;4999088;28;46517;-65
2022/09/16 06:52:25;;;;;;;;;11.25;10.75;;;;;18.47;47.76;100899.41;4999282;28;45403;-65
2022/09/16 06:54:51;;;;;;;;;15.25;14.75;;;;;18.49;47.53;100894.91;4999275;28;45271;-65
2022/09/16 06:57:21;;;;;;;;;15.25;13.00;;;;;18.51;47.42;100901.03;4999118;28;45421;-65
2022/09/16 06:59:47;;;;;;;;;14.00;13.00;;;;;18.49;47.67;100892.25;4998006;28;46410;-65
2022/09/16 07:02:13;;;;;;;;;16.00;14.50;;;;;18.55;47.81;100892.91;4998458;28;45289;-65
2022/09/16 07:04:38;;;;;;;;;16.00;12.25;;;;;18.55;47.24;100890.22;4999075;28;45309;-65
2022/09/16 07:07:04;;;;;;;;;10.50;10.50;;;;;18.56;47.56;100897.28;5000310;28;45271;-65
2022/09/16 07:09:29;;;;;;;;;16.50;13.75;;;;;18.57;47.67;100899.88;5002261;28;46569;-65
2022/09/16 07:11:55;;;;;;;;;19.50;16.75;;;;;18.57;47.42;100907.00;5002328;28;45483;-65
2022/09/16 07:14:21;;;;;;;;;14.50;12.75;;;;;18.58;47.75;100912.25;4984528;28;45264;-65
2022/09/16 07:16:47;;;;;;;;;11.75;10.50;;;;;18.56;47.54;100903.47;5002344;28;45238;-65
2022/09/16 07:19:12;;;;;;;;;12.75;10.00;;;;;18.60;47.51;100910.41;5002218;28;45442;-64
2022/09/16 07:21:37;;;;;;;;;13.75;13.00;;;;;18.62;47.68;100918.31;5002347;28;45239;-64
2022/09/16 07:24:03;;;;;;;;;11.00;9.25;;;;;18.63;47.31;100922.69;5002295;28;45311;-64
2022/09/16 07:26:33;;;;;;;;;11.50;8.25;;;;;18.67;47.38;100926.94;5002212;28;45626;-64
2022/09/16 07:29:00;;;;;;;;;11.00;10.75;;;;;18.70;47.86;100924.13;5001963;28;45518;-65
2022/09/16 07:31:29;;;;;;;;;13.00;11.75;;;;;18.73;47.67;100925.78;5001909;28;45299;-65
2022/09/16 07:33:56;;;;;;;;;12.75;11.75;;;;;18.80;48.07;100933.44;5001917;28;45247;-64
2022/09/16 07:36:28;;;;;;;;;11.75;8.75;;;;;18.87;47.58;100938.47;4981022;28;45628;-64
2022/09/16 07:38:57;;;;;;;;;8.00;8.00;;;;;18.91;47.53;100934.78;4997933;28;45239;-66
2022/09/16 07:41:26;;;;;;;;;7.25;7.25;;;;;18.96;47.83;100936.28;5002021;28;46547;-66
2022/09/16 07:43:58;;;;;;;;;12.00;9.50;;;;;19.03;47.67;100936.00;5001544;28;45349;-64
2022/09/16 07:46:25;;;;;;;;;12.75;10.75;;;;;19.07;47.54;100938.44;5000591;28;45564;-65
2022/09/16 07:48:50;;;;;;;;;11.50;10.25;;;;;19.11;47.76;100940.03;5001664;28;45486;-65
2022/09/16 07:51:21;;;;;;;;;13.50;11.75;;;;;19.16;47.50;100951.31;5001699;28;45226;-64
2022/09/16 07:53:51;;;;;;;;;8.50;7.25;;;;;19.16;47.60;100939.81;5001844;28;45445;-65
2022/09/16 07:56:19;;;;;;;;;10.00;10.00;;;;;19.22;47.70;100949.31;5001611;28;45222;-65
2022/09/16 07:58:46;;;;;;;;;11.25;8.50;;;;;19.26;47.40;100953.56;5001257;28;45559;-64
2022/09/16 08:01:13;;;;;;;;;10.25;8.50;;;;;19.29;47.82;100953.41;5001251;28;45563;-65
2022/09/16 08:03:40;;;;;;;;;9.50;9.50;;;;;19.32;47.44;100945.28;5001528;28;45390;-64
2022/09/16 08:06:09;;;;;;;;;8.50;7.50;;;;;19.38;47.63;100952.13;5001805;28;45234;-64
2022/09/16 08:08:35;;;;;;;;;9.75;9.75;;;;;19.41;47.44;100950.19;5001402;28;46084;-65
2022/09/16 08:11:01;;;;;;;;;9.00;8.00;;;;;19.47;47.35;100949.00;4984448;28;45399;-64
2022/09/16 08:13:29;;;;;;;;;12.00;11.25;;;;;19.50;47.58;100951.53;5001539;28;45342;-64
2022/09/16 08:15:59;;;;;;;;;10.00;9.00;;;;;19.54;47.19;100954.91;5001225;28;45374;-64
2022/09/16 08:18:24;;;;;;;;;9.25;8.25;;;;;19.60;47.30;100957.28;5000123;28;45320;-64
2022/09/16 08:20:49;;;;;;;;;10.50;10.25;;;;;19.64;47.62;100957.03;5001413;28;45394;-64
2022/09/16 08:23:15;;;;;;;;;11.25;9.50;;;;;19.69;47.71;100964.81;4981526;28;45377;-64
2022/09/16 08:25:41;;;;;;;;;10.00;9.75;;;;;19.76;47.39;100966.25;5001495;28;45319;-64
2022/09/16 08:28:12;;;;;;;;;11.50;10.50;;;;;19.79;47.47;100968.75;5000997;28;45494;-65
2022/09/16 08:30:38;;;;;;;;;9.00;7.50;;;;;19.87;47.58;100965.75;5001066;28;45261;-65
2022/09/16 08:33:03;;;;;;;;;11.75;8.75;;;;;19.93;47.29;100973.44;4983461;28;45264;-64
2022/09/16 08:35:28;;;;;;;;;9.50;7.00;;;;;20.00;47.40;100973.13;5000984;28;48043;-64
2022/09/16 08:37:53;;;;;;;;;8.00;8.00;;;;;20.04;47.45;100974.72;5000501;28;58416;-64
2022/09/16 08:40:22;;;;;;;;;10.50;8.50;;;;;20.05;46.81;100971.97;5001423;28;45246;-64
2022/09/16 08:43:09;;;;;;;;;11.50;7.75;;;;;20.14;46.76;100982.16;4981648;28;45440;-64
2022/09/16 08:46:01;;;;;;;;;6.00;6.00;;;;;20.16;47.31;100981.22;5000696;28;45343;-64
2022/09/16 08:48:51;;;;;;;;;7.25;7.25;;;;;20.24;47.27;100987.06;5000391;28;46505;-64
2022/09/16 08:51:20;;;;;;;;;9.25;6.00;;;;;20.28;46.58;100993.97;5000752;28;45318;-64
2022/09/16 08:53:59;;;;;;;;;6.25;5.25;;;;;20.30;46.39;100986.72;5001048;28;45430;-66
2022/09/16 08:56:28;;;;;;;;;10.75;5.00;;;;;20.36;46.24;100989.06;5000788;28;45496;-64
2022/09/16 08:58:57;;;;;;;;;7.00;5.75;;;;;20.39;46.20;100994.28;4980543;28;47238;-64
2022/09/16 09:01:35;;;;;;;;;10.00;7.25;;;;;20.41;46.24;101000.38;5000300;28;45400;-64
2022/09/16 09:04:02;;;;;;;;;5.25;4.50;;;;;20.43;46.57;101001.16;5000647;28;45231;-64
2022/09/16 09:06:42;;;;;;;;;3.50;3.50;;;;;20.42;45.86;100995.91;5000697;28;45557;-64
2022/09/16 09:09:14;;;;;;;;;4.00;3.50;;;;;20.45;46.29;101001.09;5000406;28;46202;-64
2022/09/16 09:11:45;;;;;;;;;3.75;3.75;;;;;20.45;46.12;101006.41;5000431;28;45196;-64
2022/09/16 09:14:23;;;;;;;;;6.00;6.00;;;;;20.46;46.02;101008.16;5000305;28;45239;-64
2022/09/16 09:17:14;;;;;;;;;6.00;5.75;;;;;20.47;45.41;101007.22;5000237;28;45579;-64
2022/09/16 09:19:49;;;;;;;;;5.00;3.00;;;;;20.48;45.34;101011.63;4998234;28;46464;-64
2022/09/16 09:22:17;;;;;;;;;4.25;3.25;;;;;20.50;45.71;101004.38;4979191;28;45522;-65
2022/09/16 09:24:51;;;;;;;;;6.25;4.00;;;;;20.52;45.56;101005.16;4993696;28;45234;-64
2022/09/16 09:27:40;;;;;;;;;6.00;6.00;;;;;20.55;45.52;101014.81;4999409;28;45538;-64
2022/09/16 09:30:18;;;;;;;;;6.00;5.00;;;;;20.58;45.06;101017.34;4999798;28;46235;-64
2022/09/16 09:33:12;;;;;;;;;5.00;5.00;;;;;20.61;45.44;101015.34;5000257;28;45408;-64
2022/09/16 09:36:09;;;;;;;;;5.00;4.00;;;;;20.64;44.72;101014.38;5000386;28;45345;-64
2022/09/16 09:38:42;;;;;;;;;5.00;4.00;;;;;20.68;44.91;101023.94;5000353;28;45404;-64
2022/09/16 09:41:30;;;;;;;;;5.00;4.25;;;;;20.71;44.93;101023.78;5000096;28;45431;-64
2022/09/16 09:44:05;;;;;;;;;5.00;5.00;;;;;20.74;44.65;101020.97;4999924;28;45252;-63
2022/09/16 09:46:39;;;;;;;;;6.50;4.75;;;;;20.77;44.59;101028.81;4999813;28;45477;-63
2022/09/16 09:49:13;;;;;;;;;5.25;5.00;;;;;20.82;44.90;101033.91;5000071;28;45445;-64
2022/09/16 09:51:48;;;;;;;;;6.00;5.00;;;;;20.86;44.76;101023.94;5000057;28;45504;-64
2022/09/16 09:54:28;;;;;;;;;5.00;4.00;;;;;20.94;44.88;101033.28;4999679;28;45344;-64
2022/09/16 09:56:59;;;;;;;;;7.50;6.00;;;;;21.02;44.44;101032.84;5000064;28;45299;-63
2022/09/16 09:59:34;;;;;;;;;5.00;4.00;;;;;21.08;44.80;101029.84;4999661;28;45409;-63
2022/09/16 10:02:00;;;;;;;;;3.00;3.00;;;;;21.14;44.29;101027.81;4978476;28;48385;-64
2022/09/16 10:04:29;;;;;;;;;2.50;2.50;;;;;21.20;44.28;101025.66;4999604;28;45176;-64
2022/09/16 10:06:57;;;;;;;;;6.25;3.00;;;;;21.29;44.16;101032.31;4999959;28;45515;-63
2022/09/16 10:09:23;;;;;;;;;2.00;2.00;;;;;21.35;44.21;101029.28;4999721;28;45540;-63
2022/09/16 10:11:54;;;;;;;;;2.75;2.00;;;;;21.45;44.18;101031.47;4999542;28;45457;-64
2022/09/16 10:14:30;;;;;;;;;3.00;3.00;;;;;21.54;43.57;101025.59;4999646;28;45215;-63
2022/09/16 10:17:14;;;;;;;;;2.75;2.00;;;;;21.62;43.74;101030.56;4980915;28;45369;-63
2022/09/16 10:19:58;;;;;;;;;2.00;2.00;;;;;21.75;43.10;101031.59;4999749;28;45235;-63
2022/09/16 10:22:33;;;;;;;;;4.00;2.75;;;;;21.82;43.25;101029.44;4999618;28;45332;-63
2022/09/16 10:25:20;;;;;;;;;6.00;3.75;;;;;21.90;43.32;101028.03;4999694;28;45223;-63
2022/09/16 10:28:04;;;;;;;;;5.00;2.25;;;;;22.00;42.98;101025.69;4999724;28;45457;-62
2022/09/16 10:30:55;;;;;;;;;2.50;2.00;;;;;22.15;42.58;101026.63;4999264;28;45273;-62
2022/09/16 10:33:34;;;;;;;;;2.50;2.00;;;;;22.32;42.69;101022.09;4998805;28;45504;-63
2022/09/16 10:36:05;;;;;;;;;2.25;2.00;;;;;22.47;42.07;101023.88;4998263;28;45324;-62
2022/09/16 10:38:39;;;;;;;;;3.75;3.00;;;;;22.62;42.28;101019.41;4998281;28;45302;-62
2022/09/16 10:41:15;;;;;;;;;4.00;4.00;;;;;22.80;42.14;101013.91;4997979;28;45337;-62
2022/09/16 10:43:48;;;;;;;;;2.75;2.75;;;;;22.95;42.09;101018.28;5001768;28;46702;-62
2022/09/16 10:46:15;;;;;;;;;3.25;3.25;;;;;23.09;41.93;101013.91;5001734;28;45360;-62
2022/09/16 10:48:42;;;;;;;;;2.00;2.00;;;;;23.18;41.49;101019.59;5002277;28;45502;-62
2022/09/16 10:51:21;;;;;;;;;2.00;2.00;;;;;23.32;41.62;101028.56;5001626;28;45531;-62
2022/09/16 10:53:55;;;;;;;;;1.75;1.75;;;;;23.42;41.15;101026.16;5001699;28;46113;-62
2022/09/16 10:56:30;;;;;;;;;3.00;2.00;;;;;23.54;41.20;101036.09;5002057;28;45446;-62
2022/09/16 10:59:10;;;;;;;;;2.75;2.25;;;;;23.64;41.27;101039.91;4982220;28;45395;-62
2022/09/16 11:01:54;;;;;;;;;5.00;3.00;;;;;23.75;40.75;101038.34;5001445;28;45288;-62
2022/09/16 11:05:17;;;;;;;;;2.25;1.75;;;;;23.83;40.79;101028.81;5001147;28;46196;-62
2022/09/16 11:07:51;;;;;;;;;2.50;2.50;;;;;23.92;40.61;101035.44;4960214;28;45374;-61
2022/09/16 11:10:31;;;;;;;;;2.25;1.25;;;;;23.97;40.54;101038.69;4960183;28;45343;-62
2022/09/16 11:13:03;;;;;;;;;1.50;1.50;;;;;24.01;40.37;101034.84;4975780;28;45492;-62
2022/09/16 11:15:47;;;;;;;;;2.75;2.75;;;;;24.04;39.89;101038.28;5000885;28;46172;-62
2022/09/16 11:18:30;;;;;;;;;1.50;1.50;;;;;24.07;39.80;101030.88;5001433;28;45314;-61
2022/09/16 11:21:01;;;;;;;;;1.75;1.75;;;;;24.11;39.19;101032.41;5001500;28;45463;-61
2022/09/16 11:23:57;;;;;;;;;2.50;1.00;;;;;24.15;39.56;101033.94;5001288;28;45259;-61
2022/09/16 11:26:37;;;;;;;;;2.00;2.00;;;;;24.18;39.59;101032.88;5001116;28;45629;-62
2022/09/16 11:29:39;;;;;;;;;1.50;1.50;;;;;24.23;39.64;101038.78;5001067;28;45283;-61
2022/09/16 11:32:23;;;;;;;;;2.25;2.25;;;;;24.25;38.79;101027.94;5001016;28;45180;-62
2022/09/16 11:35:00;;;;;;;;;4.00;3.00;;;;;24.21;38.90;101016.53;4961693;28;1148624;-62
2022/09/16 11:37:53;;;;;;;;;6.00;3.50;;;;;24.27;39.05;101023.31;5002072;28;45794;-62
2022/09/16 11:40:31;;;;;;;;;1.00;0.00;;;;;24.39;39.02;101030.56;5001616;28;45235;-61
2022/09/16 11:42:56;;;;;;;;;2.00;2.00;;;;;24.54;39.68;101030.47;5001698;28;45404;-61
2022/09/16 11:45:46;;;;;;;;;4.50;2.25;;;;;24.72;38.99;101029.22;5001515;28;45718;-61